sensor_id;sensor_type;location;lat;lon;timestamp;pressure;altitude;pressure_sealevel;temperature
69420;BMP280;56612;52.030;113.524;2023-05-10T00:02:45;93379.25;;;11.90
69420;BMP280;56612;52.030;113.524;2023-05-10T00:05:49;93383.41;;;12.01
69420;BMP280;56612;52.030;113.524;2023-05-10T00:08:52;93381.53;;;12.12
69420;BMP280;56612;52.030;113.524;2023-05-10T00:11:57;93370.50;;;12.42
69420;BMP280;56612;52.030;113.524;2023-05-10T00:15:01;93377.47;;;12.67
69420;BMP280;56612;52.030;113.524;2023-05-10T00:18:06;93373.50;;;12.72
69420;BMP280;56612;52.030;113.524;2023-05-10T00:21:10;93373.56;;;12.80
69420;BMP280;56612;52.030;113.524;2023-05-10T00:24:14;93369.75;;;13.06
69420;BMP280;56612;52.030;113.524;2023-05-10T00:27:17;93360.63;;;13.39
69420;BMP280;56612;52.030;113.524;2023-05-10T00:30:21;93358.13;;;13.72
69420;BMP280;56612;52.030;113.524;2023-05-10T00:33:25;93354.84;;;13.85
69420;BMP280;56612;52.030;113.524;2023-05-10T00:36:29;93354.13;;;13.81
69420;BMP280;56612;52.030;113.524;2023-05-10T00:39:33;93355.53;;;13.88
69420;BMP280;56612;52.030;113.524;2023-05-10T00:42:36;93348.97;;;14.27
69420;BMP280;56612;52.030;113.524;2023-05-10T00:45:41;93353.06;;;14.61
69420;BMP280;56612;52.030;113.524;2023-05-10T00:48:46;93351.75;;;14.84
69420;BMP280;56612;52.030;113.524;2023-05-10T00:51:50;93336.97;;;14.93
69420;BMP280;56612;52.030;113.524;2023-05-10T00:54:55;93341.66;;;15.13
69420;BMP280;56612;52.030;113.524;2023-05-10T00:57:59;93325.44;;;15.52
69420;BMP280;56612;52.030;113.524;2023-05-10T01:01:04;93330.03;;;15.86
69420;BMP280;56612;52.030;113.524;2023-05-10T01:04:09;93327.91;;;16.14
69420;BMP280;56612;52.030;113.524;2023-05-10T01:07:14;93332.50;;;16.36
69420;BMP280;56612;52.030;113.524;2023-05-10T01:10:17;93325.53;;;16.70
69420;BMP280;56612;52.030;113.524;2023-05-10T01:13:36;93312.78;;;17.36
69420;BMP280;56612;52.030;113.524;2023-05-10T01:16:40;93318.53;;;17.68
69420;BMP280;56612;52.030;113.524;2023-05-10T01:19:44;93311.00;;;17.75
69420;BMP280;56612;52.030;113.524;2023-05-10T01:23:04;93316.56;;;18.16
69420;BMP280;56612;52.030;113.524;2023-05-10T01:33:27;93297.03;;;18.98
69420;BMP280;56612;52.030;113.524;2023-05-10T01:40:21;93282.53;;;20.45
69420;BMP280;56612;52.030;113.524;2023-05-10T01:43:34;93283.13;;;20.76
69420;BMP280;56612;52.030;113.524;2023-05-10T01:46:40;93270.94;;;21.27
69420;BMP280;56612;52.030;113.524;2023-05-10T01:49:50;93270.75;;;21.83
69420;BMP280;56612;52.030;113.524;2023-05-10T01:52:57;93267.00;;;22.38
69420;BMP280;56612;52.030;113.524;2023-05-10T01:56:02;93263.28;;;22.68
69420;BMP280;56612;52.030;113.524;2023-05-10T01:59:13;93252.38;;;23.29
69420;BMP280;56612;52.030;113.524;2023-05-10T02:02:20;93248.97;;;24.01
69420;BMP280;56612;52.030;113.524;2023-05-10T02:05:25;93247.00;;;24.16
69420;BMP280;56612;52.030;113.524;2023-05-10T02:08:30;93239.81;;;24.25
69420;BMP280;56612;52.030;113.524;2023-05-10T02:11:39;93244.06;;;25.04
69420;BMP280;56612;52.030;113.524;2023-05-10T02:14:42;93236.59;;;25.33
69420;BMP280;56612;52.030;113.524;2023-05-10T02:17:47;93242.50;;;25.84
69420;BMP280;56612;52.030;113.524;2023-05-10T02:20:52;93238.59;;;26.23
69420;BMP280;56612;52.030;113.524;2023-05-10T02:23:57;93232.28;;;26.54
69420;BMP280;56612;52.030;113.524;2023-05-10T02:27:03;93220.22;;;26.34
69420;BMP280;56612;52.030;113.524;2023-05-10T02:30:08;93231.69;;;26.24
69420;BMP280;56612;52.030;113.524;2023-05-10T02:33:14;93227.25;;;26.98
69420;BMP280;56612;52.030;113.524;2023-05-10T02:36:19;93205.09;;;27.91
69420;BMP280;56612;52.030;113.524;2023-05-10T02:39:24;93213.41;;;28.27
69420;BMP280;56612;52.030;113.524;2023-05-10T02:42:32;93203.47;;;29.02
69420;BMP280;56612;52.030;113.524;2023-05-10T02:45:38;93209.91;;;29.09
69420;BMP280;56612;52.030;113.524;2023-05-10T02:48:43;93199.19;;;29.15
69420;BMP280;56612;52.030;113.524;2023-05-10T02:51:51;93200.44;;;29.40
69420;BMP280;56612;52.030;113.524;2023-05-10T02:55:01;93189.59;;;29.80
69420;BMP280;56612;52.030;113.524;2023-05-10T02:58:06;93189.06;;;29.67
69420;BMP280;56612;52.030;113.524;2023-05-10T03:01:10;93193.03;;;30.12
69420;BMP280;56612;52.030;113.524;2023-05-10T03:04:14;93179.28;;;30.93
69420;BMP280;56612;52.030;113.524;2023-05-10T03:07:18;93185.31;;;31.45
69420;BMP280;56612;52.030;113.524;2023-05-10T03:10:27;93183.72;;;32.14
69420;BMP280;56612;52.030;113.524;2023-05-10T03:13:39;93188.84;;;32.65
69420;BMP280;56612;52.030;113.524;2023-05-10T03:16:53;93169.91;;;33.04
69420;BMP280;56612;52.030;113.524;2023-05-10T03:20:06;93168.91;;;32.99
69420;BMP280;56612;52.030;113.524;2023-05-10T03:23:22;93163.91;;;33.53
69420;BMP280;56612;52.030;113.524;2023-05-10T03:26:28;93163.09;;;33.71
69420;BMP280;56612;52.030;113.524;2023-05-10T03:29:47;93147.56;;;33.92
69420;BMP280;56612;52.030;113.524;2023-05-10T03:32:52;93150.16;;;34.11
69420;BMP280;56612;52.030;113.524;2023-05-10T03:35:56;93143.13;;;34.12
69420;BMP280;56612;52.030;113.524;2023-05-10T03:39:00;93139.56;;;34.05
69420;BMP280;56612;52.030;113.524;2023-05-10T03:42:03;93135.56;;;34.27
69420;BMP280;56612;52.030;113.524;2023-05-10T03:45:08;93125.16;;;34.60
69420;BMP280;56612;52.030;113.524;2023-05-10T03:48:12;93111.81;;;34.78
69420;BMP280;56612;52.030;113.524;2023-05-10T03:51:17;93110.38;;;35.18
69420;BMP280;56612;52.030;113.524;2023-05-10T03:54:21;93109.91;;;35.54
69420;BMP280;56612;52.030;113.524;2023-05-10T03:57:25;93106.47;;;36.14
69420;BMP280;56612;52.030;113.524;2023-05-10T04:00:29;93095.28;;;35.92
69420;BMP280;56612;52.030;113.524;2023-05-10T04:03:34;93083.47;;;34.93
69420;BMP280;56612;52.030;113.524;2023-05-10T04:06:40;93085.44;;;35.48
69420;BMP280;56612;52.030;113.524;2023-05-10T04:09:43;93080.63;;;36.96
69420;BMP280;56612;52.030;113.524;2023-05-10T04:12:48;93076.97;;;37.47
69420;BMP280;56612;52.030;113.524;2023-05-10T04:15:51;93072.16;;;38.15
69420;BMP280;56612;52.030;113.524;2023-05-10T04:18:56;93062.91;;;38.71
69420;BMP280;56612;52.030;113.524;2023-05-10T04:21:59;93060.53;;;38.74
69420;BMP280;56612;52.030;113.524;2023-05-10T04:25:04;93057.31;;;38.91
69420;BMP280;56612;52.030;113.524;2023-05-10T04:28:08;93048.19;;;39.76
69420;BMP280;56612;52.030;113.524;2023-05-10T04:31:12;93036.91;;;39.96
69420;BMP280;56612;52.030;113.524;2023-05-10T04:34:16;93038.34;;;39.51
69420;BMP280;56612;52.030;113.524;2023-05-10T04:37:20;93025.88;;;39.43
69420;BMP280;56612;52.030;113.524;2023-05-10T04:40:24;93027.22;;;38.98
69420;BMP280;56612;52.030;113.524;2023-05-10T04:43:29;93025.91;;;38.71
69420;BMP280;56612;52.030;113.524;2023-05-10T04:46:33;93011.94;;;39.23
69420;BMP280;56612;52.030;113.524;2023-05-10T04:49:37;93014.47;;;40.77
69420;BMP280;56612;52.030;113.524;2023-05-10T04:52:40;93004.56;;;41.79
69420;BMP280;56612;52.030;113.524;2023-05-10T04:55:45;93000.22;;;42.15
69420;BMP280;56612;52.030;113.524;2023-05-10T04:58:49;92995.19;;;42.33
69420;BMP280;56612;52.030;113.524;2023-05-10T05:01:54;92991.88;;;42.37
69420;BMP280;56612;52.030;113.524;2023-05-10T05:04:58;92973.00;;;42.82
69420;BMP280;56612;52.030;113.524;2023-05-10T05:08:02;92974.63;;;42.06
69420;BMP280;56612;52.030;113.524;2023-05-10T05:11:06;92963.69;;;40.37
69420;BMP280;56612;52.030;113.524;2023-05-10T05:14:09;92971.09;;;38.67
69420;BMP280;56612;52.030;113.524;2023-05-10T05:17:13;92959.75;;;39.66
69420;BMP280;56612;52.030;113.524;2023-05-10T05:20:17;92953.75;;;37.86
69420;BMP280;56612;52.030;113.524;2023-05-10T05:23:22;92941.63;;;36.57
69420;BMP280;56612;52.030;113.524;2023-05-10T05:26:28;92945.78;;;35.48
69420;BMP280;56612;52.030;113.524;2023-05-10T05:29:32;92947.28;;;37.27
69420;BMP280;56612;52.030;113.524;2023-05-10T05:32:36;92930.78;;;37.79
69420;BMP280;56612;52.030;113.524;2023-05-10T05:35:39;92939.03;;;38.01
69420;BMP280;56612;52.030;113.524;2023-05-10T05:38:43;92920.81;;;38.35
69420;BMP280;56612;52.030;113.524;2023-05-10T05:41:47;92924.97;;;33.85
69420;BMP280;56612;52.030;113.524;2023-05-10T05:44:51;92913.97;;;34.62
69420;BMP280;56612;52.030;113.524;2023-05-10T05:47:55;92915.31;;;36.13
69420;BMP280;56612;52.030;113.524;2023-05-10T05:50:59;92907.50;;;37.07
69420;BMP280;56612;52.030;113.524;2023-05-10T05:54:08;92903.41;;;38.14
69420;BMP280;56612;52.030;113.524;2023-05-10T05:57:11;92909.13;;;37.25
69420;BMP280;56612;52.030;113.524;2023-05-10T06:00:16;92898.53;;;36.78
69420;BMP280;56612;52.030;113.524;2023-05-10T06:03:20;92895.69;;;35.41
69420;BMP280;56612;52.030;113.524;2023-05-10T06:06:23;92893.16;;;35.61
69420;BMP280;56612;52.030;113.524;2023-05-10T06:09:27;92879.94;;;35.16
69420;BMP280;56612;52.030;113.524;2023-05-10T06:12:30;92886.28;;;34.39
69420;BMP280;56612;52.030;113.524;2023-05-10T06:15:34;92883.41;;;34.08
69420;BMP280;56612;52.030;113.524;2023-05-10T06:18:38;92887.06;;;33.66
69420;BMP280;56612;52.030;113.524;2023-05-10T06:21:42;92870.72;;;33.38
69420;BMP280;56612;52.030;113.524;2023-05-10T06:24:45;92874.41;;;33.84
69420;BMP280;56612;52.030;113.524;2023-05-10T06:27:49;92876.00;;;34.37
69420;BMP280;56612;52.030;113.524;2023-05-10T06:30:55;92849.63;;;34.45
69420;BMP280;56612;52.030;113.524;2023-05-10T06:33:59;92850.25;;;34.30
69420;BMP280;56612;52.030;113.524;2023-05-10T06:37:03;92836.19;;;33.37
69420;BMP280;56612;52.030;113.524;2023-05-10T06:40:08;92845.47;;;32.84
69420;BMP280;56612;52.030;113.524;2023-05-10T06:43:12;92843.53;;;31.80
69420;BMP280;56612;52.030;113.524;2023-05-10T06:46:16;92839.44;;;31.25
69420;BMP280;56612;52.030;113.524;2023-05-10T06:49:19;92831.38;;;30.95
69420;BMP280;56612;52.030;113.524;2023-05-10T06:52:23;92836.16;;;30.86
69420;BMP280;56612;52.030;113.524;2023-05-10T06:55:27;92830.75;;;30.75
69420;BMP280;56612;52.030;113.524;2023-05-10T06:58:30;92828.84;;;30.83
69420;BMP280;56612;52.030;113.524;2023-05-10T07:01:35;92832.50;;;30.70
69420;BMP280;56612;52.030;113.524;2023-05-10T07:04:40;92837.84;;;30.45
69420;BMP280;56612;52.030;113.524;2023-05-10T07:07:43;92830.94;;;30.54
69420;BMP280;56612;52.030;113.524;2023-05-10T07:10:47;92828.00;;;30.75
69420;BMP280;56612;52.030;113.524;2023-05-10T07:13:51;92830.06;;;30.47
69420;BMP280;56612;52.030;113.524;2023-05-10T07:16:55;92830.50;;;29.83
69420;BMP280;56612;52.030;113.524;2023-05-10T07:19:59;92833.63;;;29.58
69420;BMP280;56612;52.030;113.524;2023-05-10T07:23:04;92838.56;;;29.26
69420;BMP280;56612;52.030;113.524;2023-05-10T07:26:07;92838.09;;;29.13
69420;BMP280;56612;52.030;113.524;2023-05-10T07:29:12;92866.97;;;28.82
69420;BMP280;56612;52.030;113.524;2023-05-10T07:32:15;92823.22;;;28.35
69420;BMP280;56612;52.030;113.524;2023-05-10T07:35:19;92807.91;;;28.49
69420;BMP280;56612;52.030;113.524;2023-05-10T07:38:23;92811.84;;;28.63
69420;BMP280;56612;52.030;113.524;2023-05-10T07:41:27;92819.56;;;28.71
69420;BMP280;56612;52.030;113.524;2023-05-10T07:44:31;92823.59;;;28.82
69420;BMP280;56612;52.030;113.524;2023-05-10T07:47:34;92821.91;;;28.98
69420;BMP280;56612;52.030;113.524;2023-05-10T07:50:38;92825.41;;;28.97
69420;BMP280;56612;52.030;113.524;2023-05-10T07:53:41;92810.16;;;28.57
69420;BMP280;56612;52.030;113.524;2023-05-10T07:56:45;92809.47;;;28.35
69420;BMP280;56612;52.030;113.524;2023-05-10T07:59:50;92800.72;;;28.33
69420;BMP280;56612;52.030;113.524;2023-05-10T08:02:54;92817.06;;;28.35
69420;BMP280;56612;52.030;113.524;2023-05-10T08:05:58;92816.69;;;28.41
69420;BMP280;56612;52.030;113.524;2023-05-10T08:09:03;92802.56;;;28.26
69420;BMP280;56612;52.030;113.524;2023-05-10T08:12:09;92817.16;;;28.01
69420;BMP280;56612;52.030;113.524;2023-05-10T08:15:13;92811.47;;;27.82
69420;BMP280;56612;52.030;113.524;2023-05-10T08:18:16;92814.81;;;27.95
69420;BMP280;56612;52.030;113.524;2023-05-10T08:21:23;92800.44;;;28.05
69420;BMP280;56612;52.030;113.524;2023-05-10T08:24:26;92799.28;;;28.23
69420;BMP280;56612;52.030;113.524;2023-05-10T08:27:30;92805.78;;;27.96
69420;BMP280;56612;52.030;113.524;2023-05-10T08:30:34;92807.75;;;27.98
69420;BMP280;56612;52.030;113.524;2023-05-10T08:33:37;92806.09;;;27.69
69420;BMP280;56612;52.030;113.524;2023-05-10T08:36:41;92791.47;;;27.39
69420;BMP280;56612;52.030;113.524;2023-05-10T08:39:45;92797.63;;;27.39
69420;BMP280;56612;52.030;113.524;2023-05-10T08:42:55;92801.34;;;27.57
69420;BMP280;56612;52.030;113.524;2023-05-10T08:46:01;92795.38;;;27.65
69420;BMP280;56612;52.030;113.524;2023-05-10T08:49:09;92796.91;;;27.62
69420;BMP280;56612;52.030;113.524;2023-05-10T08:52:17;92788.88;;;27.47
69420;BMP280;56612;52.030;113.524;2023-05-10T08:55:22;92789.63;;;27.35
69420;BMP280;56612;52.030;113.524;2023-05-10T08:58:27;92787.44;;;27.15
69420;BMP280;56612;52.030;113.524;2023-05-10T09:01:31;92787.25;;;27.06
69420;BMP280;56612;52.030;113.524;2023-05-10T09:04:36;92793.03;;;27.13
69420;BMP280;56612;52.030;113.524;2023-05-10T09:07:40;92786.34;;;27.09
69420;BMP280;56612;52.030;113.524;2023-05-10T09:10:44;92790.91;;;27.02
69420;BMP280;56612;52.030;113.524;2023-05-10T09:13:51;92786.84;;;27.01
69420;BMP280;56612;52.030;113.524;2023-05-10T09:16:56;92784.63;;;27.04
69420;BMP280;56612;52.030;113.524;2023-05-10T09:20:02;92792.09;;;26.82
69420;BMP280;56612;52.030;113.524;2023-05-10T09:23:06;92791.03;;;26.64
69420;BMP280;56612;52.030;113.524;2023-05-10T09:26:10;92792.22;;;26.44
69420;BMP280;56612;52.030;113.524;2023-05-10T09:29:14;92786.09;;;26.31
69420;BMP280;56612;52.030;113.524;2023-05-10T09:32:19;92783.81;;;26.10
69420;BMP280;56612;52.030;113.524;2023-05-10T09:35:25;92789.72;;;26.02
69420;BMP280;56612;52.030;113.524;2023-05-10T09:38:48;92807.81;;;26.10
69420;BMP280;56612;52.030;113.524;2023-05-10T09:41:52;92809.00;;;25.75
69420;BMP280;56612;52.030;113.524;2023-05-10T09:45:01;92806.56;;;25.56
69420;BMP280;56612;52.030;113.524;2023-05-10T09:48:05;92804.03;;;25.52
69420;BMP280;56612;52.030;113.524;2023-05-10T09:51:10;92816.38;;;25.39
69420;BMP280;56612;52.030;113.524;2023-05-10T09:54:17;92826.13;;;25.36
69420;BMP280;56612;52.030;113.524;2023-05-10T09:57:22;92827.53;;;25.35
69420;BMP280;56612;52.030;113.524;2023-05-10T10:00:28;92833.97;;;25.29
69420;BMP280;56612;52.030;113.524;2023-05-10T10:03:32;92825.75;;;25.29
69420;BMP280;56612;52.030;113.524;2023-05-10T10:06:37;92828.28;;;25.33
69420;BMP280;56612;52.030;113.524;2023-05-10T10:09:45;92830.56;;;25.28
69420;BMP280;56612;52.030;113.524;2023-05-10T10:12:54;92812.22;;;25.27
69420;BMP280;56612;52.030;113.524;2023-05-10T10:15:58;92823.16;;;25.27
69420;BMP280;56612;52.030;113.524;2023-05-10T10:19:02;92832.84;;;25.24
69420;BMP280;56612;52.030;113.524;2023-05-10T10:22:07;92833.00;;;25.35
69420;BMP280;56612;52.030;113.524;2023-05-10T10:25:12;92822.66;;;25.22
69420;BMP280;56612;52.030;113.524;2023-05-10T10:34:54;92832.28;;;25.21
69420;BMP280;56612;52.030;113.524;2023-05-10T10:38:00;92839.00;;;25.24
69420;BMP280;56612;52.030;113.524;2023-05-10T10:41:11;92833.72;;;25.20
69420;BMP280;56612;52.030;113.524;2023-05-10T10:47:42;92840.59;;;24.92
69420;BMP280;56612;52.030;113.524;2023-05-10T10:50:47;92828.09;;;24.82
69420;BMP280;56612;52.030;113.524;2023-05-10T10:53:52;92831.72;;;24.64
69420;BMP280;56612;52.030;113.524;2023-05-10T10:57:25;92844.16;;;24.61
69420;BMP280;56612;52.030;113.524;2023-05-10T11:00:30;92855.22;;;24.44
69420;BMP280;56612;52.030;113.524;2023-05-10T11:03:33;92837.88;;;24.35
69420;BMP280;56612;52.030;113.524;2023-05-10T11:06:37;92850.31;;;24.32
69420;BMP280;56612;52.030;113.524;2023-05-10T11:09:42;92871.09;;;24.11
69420;BMP280;56612;52.030;113.524;2023-05-10T11:13:02;92846.03;;;24.06
69420;BMP280;56612;52.030;113.524;2023-05-10T11:19:27;92850.94;;;23.57
69420;BMP280;56612;52.030;113.524;2023-05-10T11:22:49;92847.50;;;23.42
69420;BMP280;56612;52.030;113.524;2023-05-10T11:25:54;92856.97;;;23.29
69420;BMP280;56612;52.030;113.524;2023-05-10T11:28:59;92856.72;;;23.18
69420;BMP280;56612;52.030;113.524;2023-05-10T11:32:05;92850.72;;;22.99
69420;BMP280;56612;52.030;113.524;2023-05-10T11:35:11;92847.72;;;22.88
69420;BMP280;56612;52.030;113.524;2023-05-10T11:38:15;92853.41;;;22.82
69420;BMP280;56612;52.030;113.524;2023-05-10T11:41:20;92854.88;;;22.62
69420;BMP280;56612;52.030;113.524;2023-05-10T11:44:32;92857.69;;;22.60
69420;BMP280;56612;52.030;113.524;2023-05-10T11:47:36;92859.47;;;22.49
69420;BMP280;56612;52.030;113.524;2023-05-10T11:50:44;92850.75;;;22.28
69420;BMP280;56612;52.030;113.524;2023-05-10T11:53:53;92864.84;;;22.16
69420;BMP280;56612;52.030;113.524;2023-05-10T11:56:56;92842.78;;;22.05
69420;BMP280;56612;52.030;113.524;2023-05-10T12:00:00;92854.78;;;21.93
69420;BMP280;56612;52.030;113.524;2023-05-10T12:03:08;92860.34;;;21.89
69420;BMP280;56612;52.030;113.524;2023-05-10T12:06:14;92856.53;;;21.82
69420;BMP280;56612;52.030;113.524;2023-05-10T12:09:19;92862.34;;;21.72
69420;BMP280;56612;52.030;113.524;2023-05-10T12:12:45;92869.88;;;21.70
69420;BMP280;56612;52.030;113.524;2023-05-10T12:15:51;92864.53;;;21.68
69420;BMP280;56612;52.030;113.524;2023-05-10T12:18:58;92876.28;;;21.62
69420;BMP280;56612;52.030;113.524;2023-05-10T12:22:05;92874.94;;;21.61
69420;BMP280;56612;52.030;113.524;2023-05-10T12:25:08;92871.75;;;21.56
69420;BMP280;56612;52.030;113.524;2023-05-10T12:28:12;92874.59;;;21.52
69420;BMP280;56612;52.030;113.524;2023-05-10T12:31:16;92869.09;;;21.54
69420;BMP280;56612;52.030;113.524;2023-05-10T12:34:34;92869.28;;;21.48
69420;BMP280;56612;52.030;113.524;2023-05-10T12:37:38;92876.94;;;21.44
69420;BMP280;56612;52.030;113.524;2023-05-10T12:40:41;92885.00;;;21.46
69420;BMP280;56612;52.030;113.524;2023-05-10T12:43:45;92875.31;;;21.51
69420;BMP280;56612;52.030;113.524;2023-05-10T12:46:50;92873.41;;;21.47
69420;BMP280;56612;52.030;113.524;2023-05-10T12:49:53;92877.44;;;21.48
69420;BMP280;56612;52.030;113.524;2023-05-10T12:52:57;92880.75;;;21.51
69420;BMP280;56612;52.030;113.524;2023-05-10T12:56:01;92883.63;;;21.47
69420;BMP280;56612;52.030;113.524;2023-05-10T12:59:04;92887.81;;;21.44
69420;BMP280;56612;52.030;113.524;2023-05-10T13:02:08;92891.81;;;21.45
69420;BMP280;56612;52.030;113.524;2023-05-10T13:05:12;92894.66;;;21.41
69420;BMP280;56612;52.030;113.524;2023-05-10T13:08:16;92900.84;;;21.39
69420;BMP280;56612;52.030;113.524;2023-05-10T13:11:20;92902.38;;;21.34
69420;BMP280;56612;52.030;113.524;2023-05-10T13:14:25;92887.56;;;21.31
69420;BMP280;56612;52.030;113.524;2023-05-10T13:17:28;92899.88;;;21.28
69420;BMP280;56612;52.030;113.524;2023-05-10T13:20:35;92885.41;;;21.34
69420;BMP280;56612;52.030;113.524;2023-05-10T13:23:40;92882.69;;;21.34
69420;BMP280;56612;52.030;113.524;2023-05-10T13:26:43;92890.59;;;21.42
69420;BMP280;56612;52.030;113.524;2023-05-10T13:29:47;92901.97;;;21.46
69420;BMP280;56612;52.030;113.524;2023-05-10T13:32:50;92900.91;;;21.37
69420;BMP280;56612;52.030;113.524;2023-05-10T13:35:53;92904.25;;;21.40
69420;BMP280;56612;52.030;113.524;2023-05-10T13:38:57;92894.81;;;21.37
69420;BMP280;56612;52.030;113.524;2023-05-10T13:42:01;92896.97;;;21.34
69420;BMP280;56612;52.030;113.524;2023-05-10T13:45:05;92897.81;;;21.29
69420;BMP280;56612;52.030;113.524;2023-05-10T13:48:09;92900.75;;;21.23
69420;BMP280;56612;52.030;113.524;2023-05-10T13:51:12;92891.94;;;21.22
69420;BMP280;56612;52.030;113.524;2023-05-10T13:54:17;92877.53;;;21.26
69420;BMP280;56612;52.030;113.524;2023-05-10T13:57:22;92887.56;;;21.31
69420;BMP280;56612;52.030;113.524;2023-05-10T14:00:26;92899.09;;;21.32
69420;BMP280;56612;52.030;113.524;2023-05-10T14:03:30;92891.78;;;21.26
69420;BMP280;56612;52.030;113.524;2023-05-10T14:06:35;92879.72;;;21.21
69420;BMP280;56612;52.030;113.524;2023-05-10T14:09:39;92888.41;;;21.26
69420;BMP280;56612;52.030;113.524;2023-05-10T14:12:42;92889.16;;;21.24
69420;BMP280;56612;52.030;113.524;2023-05-10T14:15:45;92889.88;;;21.23
69420;BMP280;56612;52.030;113.524;2023-05-10T14:18:49;92892.59;;;21.02
69420;BMP280;56612;52.030;113.524;2023-05-10T14:21:52;92881.44;;;21.10
69420;BMP280;56612;52.030;113.524;2023-05-10T14:24:55;92886.75;;;21.14
69420;BMP280;56612;52.030;113.524;2023-05-10T14:27:58;92873.56;;;21.02
69420;BMP280;56612;52.030;113.524;2023-05-10T14:31:02;92880.44;;;20.99
69420;BMP280;56612;52.030;113.524;2023-05-10T14:34:05;92875.72;;;20.97
69420;BMP280;56612;52.030;113.524;2023-05-10T14:37:10;92872.34;;;20.97
69420;BMP280;56612;52.030;113.524;2023-05-10T14:40:15;92871.78;;;20.94
69420;BMP280;56612;52.030;113.524;2023-05-10T14:43:19;92865.22;;;20.87
69420;BMP280;56612;52.030;113.524;2023-05-10T14:46:23;92874.94;;;20.80
69420;BMP280;56612;52.030;113.524;2023-05-10T14:49:27;92885.91;;;20.76
69420;BMP280;56612;52.030;113.524;2023-05-10T14:52:32;92882.63;;;20.73
69420;BMP280;56612;52.030;113.524;2023-05-10T14:55:36;92858.81;;;20.53
69420;BMP280;56612;52.030;113.524;2023-05-10T14:58:40;92872.31;;;20.32
69420;BMP280;56612;52.030;113.524;2023-05-10T15:01:44;92868.44;;;20.25
69420;BMP280;56612;52.030;113.524;2023-05-10T15:04:48;92872.44;;;20.28
69420;BMP280;56612;52.030;113.524;2023-05-10T15:07:52;92865.31;;;20.40
69420;BMP280;56612;52.030;113.524;2023-05-10T15:10:55;92867.38;;;20.39
69420;BMP280;56612;52.030;113.524;2023-05-10T15:14:00;92862.22;;;20.29
69420;BMP280;56612;52.030;113.524;2023-05-10T15:17:06;92867.91;;;20.21
69420;BMP280;56612;52.030;113.524;2023-05-10T15:20:10;92858.44;;;20.20
69420;BMP280;56612;52.030;113.524;2023-05-10T15:23:13;92856.47;;;20.18
69420;BMP280;56612;52.030;113.524;2023-05-10T15:26:16;92850.69;;;20.06
69420;BMP280;56612;52.030;113.524;2023-05-10T15:29:20;92853.47;;;20.04
69420;BMP280;56612;52.030;113.524;2023-05-10T15:32:23;92848.72;;;20.04
69420;BMP280;56612;52.030;113.524;2023-05-10T15:35:27;92824.38;;;20.02
69420;BMP280;56612;52.030;113.524;2023-05-10T15:38:30;92830.81;;;20.13
69420;BMP280;56612;52.030;113.524;2023-05-10T15:41:35;92819.84;;;20.17
69420;BMP280;56612;52.030;113.524;2023-05-10T15:44:39;92816.66;;;20.11
69420;BMP280;56612;52.030;113.524;2023-05-10T15:47:42;92819.28;;;20.13
69420;BMP280;56612;52.030;113.524;2023-05-10T15:50:46;92807.78;;;20.12
69420;BMP280;56612;52.030;113.524;2023-05-10T15:53:50;92815.88;;;20.14
69420;BMP280;56612;52.030;113.524;2023-05-10T15:57:08;92811.81;;;20.13
69420;BMP280;56612;52.030;113.524;2023-05-10T16:00:12;92811.22;;;20.11
69420;BMP280;56612;52.030;113.524;2023-05-10T16:03:15;92801.19;;;20.07
69420;BMP280;56612;52.030;113.524;2023-05-10T16:06:19;92804.59;;;20.06
69420;BMP280;56612;52.030;113.524;2023-05-10T16:09:23;92799.88;;;20.04
69420;BMP280;56612;52.030;113.524;2023-05-10T16:12:27;92794.88;;;20.13
69420;BMP280;56612;52.030;113.524;2023-05-10T16:15:30;92800.50;;;20.07
69420;BMP280;56612;52.030;113.524;2023-05-10T16:18:34;92794.53;;;20.02
69420;BMP280;56612;52.030;113.524;2023-05-10T16:21:37;92802.06;;;19.99
69420;BMP280;56612;52.030;113.524;2023-05-10T16:24:40;92799.56;;;19.91
69420;BMP280;56612;52.030;113.524;2023-05-10T16:27:44;92785.59;;;19.83
69420;BMP280;56612;52.030;113.524;2023-05-10T16:30:47;92779.84;;;19.70
69420;BMP280;56612;52.030;113.524;2023-05-10T16:33:50;92776.13;;;19.59
69420;BMP280;56612;52.030;113.524;2023-05-10T16:36:54;92778.22;;;19.56
69420;BMP280;56612;52.030;113.524;2023-05-10T16:39:58;92772.78;;;19.56
69420;BMP280;56612;52.030;113.524;2023-05-10T16:43:01;92774.13;;;19.57
69420;BMP280;56612;52.030;113.524;2023-05-10T16:46:14;92761.94;;;19.56
69420;BMP280;56612;52.030;113.524;2023-05-10T16:49:17;92758.63;;;19.54
69420;BMP280;56612;52.030;113.524;2023-05-10T16:52:21;92747.69;;;19.58
69420;BMP280;56612;52.030;113.524;2023-05-10T16:55:26;92751.88;;;19.53
69420;BMP280;56612;52.030;113.524;2023-05-10T16:58:29;92746.44;;;19.55
69420;BMP280;56612;52.030;113.524;2023-05-10T17:01:34;92750.31;;;19.60
69420;BMP280;56612;52.030;113.524;2023-05-10T17:04:37;92754.44;;;19.59
69420;BMP280;56612;52.030;113.524;2023-05-10T17:07:41;92748.22;;;19.63
69420;BMP280;56612;52.030;113.524;2023-05-10T17:10:45;92749.56;;;19.64
69420;BMP280;56612;52.030;113.524;2023-05-10T17:13:48;92744.34;;;19.55
69420;BMP280;56612;52.030;113.524;2023-05-10T17:16:51;92746.34;;;19.57
69420;BMP280;56612;52.030;113.524;2023-05-10T17:19:56;92737.72;;;19.50
69420;BMP280;56612;52.030;113.524;2023-05-10T17:23:03;92739.13;;;19.49
69420;BMP280;56612;52.030;113.524;2023-05-10T17:26:06;92742.19;;;19.60
69420;BMP280;56612;52.030;113.524;2023-05-10T17:29:10;92753.91;;;19.52
69420;BMP280;56612;52.030;113.524;2023-05-10T17:32:14;92755.19;;;19.31
69420;BMP280;56612;52.030;113.524;2023-05-10T17:35:19;92758.41;;;19.12
69420;BMP280;56612;52.030;113.524;2023-05-10T17:38:24;92757.50;;;18.95
69420;BMP280;56612;52.030;113.524;2023-05-10T17:41:27;92753.47;;;18.94